createdAt,value
2023-03-15T00:01:32.793Z,9.65
2023-03-15T00:03:59.531Z,9.93
2023-03-15T00:06:32.805Z,10.57
2023-03-15T00:09:03.175Z,12.77
2023-03-15T00:11:39.813Z,10.68
2023-03-15T00:14:12.834Z,11.15
2023-03-15T00:16:39.514Z,11.73
2023-03-15T00:19:12.832Z,8.75
2023-03-15T00:21:40.537Z,10.68
2023-03-15T00:24:13.834Z,12.73
2023-03-15T00:26:46.867Z,10.05
2023-03-15T00:29:20.546Z,10.35
2023-03-15T00:31:53.852Z,12.15
2023-03-15T00:34:30.821Z,9.63
2023-03-15T00:36:57.495Z,11.07
2023-03-15T00:39:31.824Z,8.93
2023-03-15T00:41:58.502Z,10.73
2023-03-15T00:44:32.855Z,9.25
2023-03-15T00:47:05.838Z,10.93
2023-03-15T00:49:39.851Z,9.68
2023-03-15T00:52:19.835Z,12.07
2023-03-15T00:54:53.557Z,8.60
2023-03-15T00:57:26.860Z,8.43
2023-03-15T00:59:59.833Z,10.27
2023-03-15T01:02:26.509Z,9.27
2023-03-15T01:04:59.846Z,9.90
2023-03-15T01:07:32.864Z,8.63
2023-03-15T01:10:01.563Z,9.90
2023-03-15T01:12:38.843Z,9.43
2023-03-15T01:15:13.862Z,8.52
2023-03-15T01:17:41.242Z,11.52
2023-03-15T01:20:15.872Z,11.13
2023-03-15T01:22:42.741Z,11.32
2023-03-15T01:25:10.135Z,11.98
2023-03-15T01:27:43.882Z,18.40
2023-03-15T01:30:24.861Z,13.30
2023-03-15T01:32:57.915Z,10.70
2023-03-15T01:35:31.002Z,12.45
2023-03-15T01:37:57.713Z,12.13
2023-03-15T01:40:30.882Z,11.07
2023-03-15T01:43:06.517Z,10.65
2023-03-15T01:46:12.857Z,10.48
2023-03-15T01:48:45.055Z,9.10
2023-03-15T01:51:20.945Z,16.17
2023-03-15T01:53:53.584Z,10.30
2023-03-15T01:56:26.909Z,10.05
2023-03-15T01:58:54.246Z,9.85
2023-03-15T02:01:27.908Z,13.75
2023-03-15T02:04:04.882Z,9.13
2023-03-15T02:06:35.008Z,7.72
2023-03-15T02:09:12.915Z,10.13
2023-03-15T02:11:40.012Z,14.73
2023-03-15T02:14:13.897Z,11.10
2023-03-15T02:16:40.600Z,11.40
2023-03-15T02:19:18.929Z,12.20
2023-03-15T02:21:59.714Z,12.23
2023-03-15T02:24:44.906Z,10.57
2023-03-15T02:27:12.103Z,10.27
2023-03-15T02:29:51.930Z,10.82
2023-03-15T02:32:31.978Z,12.18
2023-03-15T02:34:59.009Z,11.27
2023-03-15T02:37:31.916Z,10.27
2023-03-15T02:40:04.965Z,11.55
2023-03-15T02:42:31.653Z,11.77
2023-03-15T02:45:04.928Z,13.38
2023-03-15T02:47:39.940Z,9.48
2023-03-15T02:50:14.945Z,15.40
2023-03-15T02:52:41.658Z,11.93
2023-03-15T02:55:15.920Z,13.35
2023-03-15T02:57:42.557Z,13.60
2023-03-15T03:00:21.941Z,10.32
2023-03-15T03:02:49.230Z,10.10
2023-03-15T03:05:24.171Z,8.50
2023-03-15T03:07:52.466Z,11.80
2023-03-15T03:10:26.924Z,8.60
2023-03-15T03:12:53.763Z,12.98
2023-03-15T03:15:27.925Z,9.38
2023-03-15T03:17:54.572Z,10.52
2023-03-15T03:20:27.933Z,9.90
2023-03-15T03:22:55.986Z,9.68
2023-03-15T03:25:33.969Z,9.20
2023-03-15T03:28:21.933Z,11.18
2023-03-15T03:30:55.029Z,10.50
2023-03-15T03:33:23.032Z,11.02
2023-03-15T03:35:56.971Z,13.65
2023-03-15T03:38:23.624Z,10.63
2023-03-15T03:40:50.280Z,10.02
2023-03-15T03:43:23.938Z,10.77
2023-03-15T03:45:50.656Z,8.80
2023-03-15T03:48:23.938Z,7.80
2023-03-15T03:50:56.949Z,7.72
2023-03-15T03:53:29.951Z,11.10
2023-03-15T03:56:02.971Z,9.48
2023-03-15T03:58:29.923Z,8.48
2023-03-15T04:01:02.943Z,8.45
2023-03-15T04:03:30.111Z,10.27
2023-03-15T04:06:04.959Z,8.57
2023-03-15T04:08:37.966Z,10.27
2023-03-15T04:11:10.977Z,11.13
2023-03-15T04:13:43.978Z,12.90
2023-03-15T04:16:10.797Z,10.40
2023-03-15T04:18:43.987Z,7.75
2023-03-15T04:21:11.032Z,11.45
2023-03-15T04:23:50.969Z,11.32
2023-03-15T04:26:23.978Z,13.98
2023-03-15T04:29:04.012Z,9.93
2023-03-15T04:31:45.038Z,12.15
2023-03-15T04:34:11.789Z,15.30
2023-03-15T04:36:45.087Z,13.68
2023-03-15T04:39:12.648Z,10.20
2023-03-15T04:41:45.994Z,10.15
2023-03-15T04:44:16.349Z,11.13
2023-03-15T04:46:44.061Z,12.20
2023-03-15T04:49:18.022Z,13.10
2023-03-15T04:51:51.003Z,12.55
2023-03-15T04:54:18.180Z,10.38
2023-03-15T04:56:51.032Z,10.50
2023-03-15T04:59:24.003Z,12.75
2023-03-15T05:01:50.658Z,9.73
2023-03-15T05:04:24.009Z,20.45
2023-03-15T05:06:50.721Z,11.63
2023-03-15T05:09:25.024Z,13.60
2023-03-15T05:11:51.700Z,17.60
2023-03-15T05:14:24.993Z,15.68
2023-03-15T05:16:55.323Z,9.93
2023-03-15T05:19:29.012Z,14.55
2023-03-15T05:22:02.042Z,10.02
2023-03-15T05:24:35.034Z,12.43
2023-03-15T05:27:10.017Z,16.13
2023-03-15T05:29:43.133Z,16.70
2023-03-15T05:32:23.094Z,13.73
2023-03-15T05:34:56.054Z,13.23
2023-03-15T05:37:23.448Z,14.05
2023-03-15T05:39:57.059Z,13.48
2023-03-15T05:42:33.055Z,14.05
2023-03-15T05:45:06.045Z,23.92
2023-03-15T05:47:34.076Z,14.00
2023-03-15T05:50:07.050Z,16.77
2023-03-15T05:52:33.721Z,10.75
2023-03-15T05:55:07.089Z,14.95
2023-03-15T05:57:33.821Z,11.27
2023-03-15T06:00:00.528Z,11.45
2023-03-15T06:02:34.061Z,15.63
2023-03-15T06:05:00.787Z,11.93
2023-03-15T06:07:34.063Z,10.02
2023-03-15T06:10:00.721Z,12.35
2023-03-15T06:12:34.054Z,10.85
2023-03-15T06:15:00.706Z,10.63
2023-03-15T06:17:34.047Z,11.27
2023-03-15T06:20:07.066Z,18.33
2023-03-15T06:22:34.069Z,9.98
2023-03-15T06:25:07.044Z,11.80
2023-03-15T06:27:33.910Z,11.75
2023-03-15T06:30:15.954Z,16.85
2023-03-15T06:32:50.503Z,11.70
2023-03-15T06:35:24.085Z,9.23
2023-03-15T06:37:59.048Z,14.95
2023-03-15T06:40:25.741Z,13.38
2023-03-15T06:43:25.210Z,14.15
2023-03-15T06:46:00.210Z,10.65
2023-03-15T06:48:28.091Z,11.88
2023-03-15T06:51:01.073Z,19.13
2023-03-15T06:53:27.726Z,14.23
2023-03-15T06:55:54.449Z,10.05
2023-03-15T06:58:28.098Z,9.95
2023-03-15T07:00:54.932Z,22.65
2023-03-15T07:03:29.066Z,12.95
2023-03-15T07:05:55.957Z,13.32
2023-03-15T07:08:31.089Z,12.02
2023-03-15T07:10:57.941Z,11.05
2023-03-15T07:13:24.558Z,13.18
2023-03-15T07:16:06.115Z,9.65
2023-03-15T07:23:41.114Z,11.35
2023-03-15T07:26:14.147Z,12.65
2023-03-15T07:28:47.118Z,14.18
2023-03-15T07:31:27.113Z,9.35
2023-03-15T07:34:00.120Z,10.77
2023-03-15T07:36:26.785Z,10.85
2023-03-15T07:39:00.134Z,10.70
2023-03-15T07:41:33.101Z,13.73
2023-03-15T07:43:59.831Z,14.93
2023-03-15T07:46:33.128Z,12.70
2023-03-15T07:48:59.837Z,13.77
2023-03-15T07:51:33.134Z,12.20
2023-03-15T07:54:06.121Z,12.02
2023-03-15T07:56:32.764Z,14.07
2023-03-15T07:59:06.119Z,11.00
2023-03-15T08:01:39.157Z,15.65
2023-03-15T08:04:05.924Z,11.65
2023-03-15T08:06:39.154Z,9.93
2023-03-15T08:09:06.789Z,13.95
2023-03-15T08:11:40.137Z,11.70
2023-03-15T08:14:13.148Z,11.35
2023-03-15T08:16:39.933Z,11.98
2023-03-15T08:19:13.155Z,13.63
2023-03-15T08:21:39.822Z,14.57
2023-03-15T08:24:13.161Z,16.17
2023-03-15T08:26:39.876Z,12.90
2023-03-15T08:29:20.118Z,11.48
2023-03-15T08:31:53.656Z,14.38
2023-03-15T08:34:28.212Z,11.65
2023-03-15T08:37:01.144Z,13.90
2023-03-15T08:39:27.818Z,15.38
2023-03-15T08:42:01.138Z,11.93
2023-03-15T08:44:28.065Z,12.27
2023-03-15T08:47:01.280Z,11.85
2023-03-15T08:49:28.026Z,20.80
2023-03-15T08:52:01.146Z,12.75
2023-03-15T08:54:34.191Z,15.18
2023-03-15T08:57:00.869Z,14.68
2023-03-15T08:59:40.177Z,15.35
2023-03-15T09:02:14.212Z,14.15
2023-03-15T09:04:40.936Z,14.93
2023-03-15T09:07:14.172Z,17.10
2023-03-15T09:09:40.974Z,19.42
2023-03-15T09:12:15.146Z,17.30
2023-03-15T09:14:48.154Z,13.15
2023-03-15T09:17:14.919Z,14.57
2023-03-15T09:19:48.163Z,17.92
2023-03-15T09:22:17.106Z,12.88
2023-03-15T09:24:57.177Z,15.30
2023-03-15T09:27:23.819Z,15.90
2023-03-15T09:30:19.226Z,14.70
2023-03-15T09:32:53.234Z,22.70
2023-03-15T09:35:27.213Z,21.00
2023-03-15T09:38:00.183Z,18.17
2023-03-15T09:40:36.218Z,16.15
2023-03-15T09:43:14.449Z,20.50
2023-03-15T09:46:12.264Z,20.20
2023-03-15T09:48:48.189Z,19.60
2023-03-15T09:51:39.240Z,18.48
2023-03-15T09:54:14.040Z,23.02
2023-03-15T09:56:54.207Z,18.92
2023-03-15T09:59:23.079Z,16.50
2023-03-15T10:01:58.321Z,25.55
2023-03-15T10:04:31.029Z,19.50
2023-03-15T10:07:06.194Z,24.02
2023-03-15T10:09:33.825Z,22.00
2023-03-15T10:12:13.224Z,22.67
2023-03-15T10:15:25.210Z,22.10
2023-03-15T10:18:10.220Z,28.08
2023-03-15T10:20:45.309Z,19.17
2023-03-15T10:23:25.265Z,21.40
2023-03-15T10:25:52.530Z,18.73
2023-03-15T10:28:38.229Z,24.20
2023-03-15T10:31:22.353Z,26.45
2023-03-15T10:34:03.263Z,22.70
2023-03-15T10:36:36.224Z,26.67
2023-03-15T10:39:05.292Z,21.30
2023-03-15T10:41:50.249Z,23.60
2023-03-15T10:44:20.745Z,20.80
2023-03-15T10:47:24.191Z,24.20
2023-03-15T10:49:56.876Z,22.20
2023-03-15T10:52:46.214Z,22.92
2023-03-15T10:55:16.074Z,19.30
2023-03-15T10:58:01.242Z,22.25
2023-03-15T11:00:32.101Z,21.92
2023-03-15T11:03:13.347Z,20.67
2023-03-15T11:05:51.686Z,21.98
2023-03-15T11:08:30.275Z,21.15
2023-03-15T11:10:58.847Z,20.15
2023-03-15T11:13:28.162Z,21.38
2023-03-15T11:18:56.272Z,21.42
2023-03-15T11:21:35.683Z,19.13
2023-03-15T11:24:10.288Z,24.55
2023-03-15T11:26:45.255Z,19.23
2023-03-15T11:29:23.347Z,16.27
2023-03-15T11:32:04.237Z,19.17
2023-03-15T11:35:05.275Z,21.08
2023-03-15T11:37:49.245Z,18.35
2023-03-15T11:40:23.337Z,20.65
2023-03-15T11:43:20.256Z,24.15
2023-03-15T11:45:59.448Z,19.63
2023-03-15T11:48:59.299Z,18.15
2023-03-15T11:51:25.974Z,28.17
2023-03-15T11:54:22.296Z,19.63
2023-03-15T11:56:57.486Z,18.35
2023-03-15T11:59:33.298Z,21.63
2023-03-15T12:02:15.064Z,23.25
2023-03-15T12:04:57.120Z,17.83
2023-03-15T12:07:36.330Z,20.48
2023-03-15T12:10:02.916Z,21.98
2023-03-15T12:12:29.484Z,19.85
2023-03-15T12:15:08.297Z,18.75
2023-03-15T12:17:41.270Z,21.55
2023-03-15T12:20:14.493Z,18.77
2023-03-15T12:22:50.299Z,29.13
2023-03-15T12:25:33.843Z,28.60
2023-03-15T12:28:12.289Z,17.80
2023-03-15T12:30:55.397Z,22.73
2023-03-15T12:33:22.786Z,18.50
2023-03-15T12:35:56.319Z,23.67
2023-03-15T12:38:23.804Z,30.63
2023-03-15T12:41:02.318Z,34.65
2023-03-15T12:44:12.310Z,22.27
2023-03-15T12:46:45.313Z,23.63
2023-03-15T12:49:13.769Z,19.77
2023-03-15T12:52:10.324Z,24.88
2023-03-15T12:55:07.292Z,18.98
2023-03-15T12:57:40.287Z,21.40
2023-03-15T13:00:23.315Z,18.90
2023-03-15T13:02:53.849Z,22.13
2023-03-15T13:05:20.725Z,24.45
2023-03-15T13:08:24.342Z,28.40
2023-03-15T13:10:50.976Z,20.15
2023-03-15T13:13:47.339Z,28.92
2023-03-15T13:16:44.388Z,24.77
2023-03-15T13:19:22.345Z,28.15
2023-03-15T13:22:08.332Z,18.67
2023-03-15T13:24:52.950Z,20.00
2023-03-15T13:27:48.344Z,24.17
2023-03-15T13:30:44.612Z,23.27
2023-03-15T13:33:27.326Z,30.83
2023-03-15T13:35:56.126Z,28.85
2023-03-15T13:38:32.349Z,21.55
2023-03-15T13:41:08.336Z,26.23
2023-03-15T13:43:39.206Z,27.38
2023-03-15T13:46:12.399Z,24.30
2023-03-15T13:48:50.354Z,22.90
2023-03-15T13:51:32.347Z,25.80
2023-03-15T13:54:18.533Z,20.23
2023-03-15T13:57:02.359Z,17.98
2023-03-15T13:59:45.337Z,21.67
2023-03-15T14:02:18.265Z,25.35
2023-03-15T14:05:00.386Z,17.33
2023-03-15T14:07:43.344Z,18.27
2023-03-15T14:10:19.153Z,19.25
2023-03-15T14:12:52.354Z,21.23
2023-03-15T14:15:35.821Z,20.20
2023-03-15T14:18:11.388Z,25.33
2023-03-15T14:20:45.396Z,25.05
2023-03-15T14:23:22.410Z,20.20
2023-03-15T14:26:08.394Z,21.88
2023-03-15T14:28:35.394Z,18.00
2023-03-15T14:31:09.391Z,20.00
2023-03-15T14:33:41.414Z,22.02
2023-03-15T14:36:28.386Z,22.67
2023-03-15T14:38:57.588Z,22.35
2023-03-15T14:41:33.467Z,26.13
2023-03-15T14:44:03.005Z,24.38
2023-03-15T14:46:39.402Z,22.38
2023-03-15T14:49:13.403Z,23.52
2023-03-15T14:51:40.117Z,26.55
2023-03-15T14:54:14.492Z,26.63
2023-03-15T14:56:47.392Z,25.30
2023-03-15T14:59:20.383Z,24.30
2023-03-15T15:01:51.956Z,30.85
2023-03-15T15:04:26.652Z,22.25
2023-03-15T15:06:55.498Z,21.83
2023-03-15T15:09:30.400Z,25.52
2023-03-15T15:11:57.156Z,26.02
2023-03-15T15:14:30.440Z,24.77
2023-03-15T15:16:57.220Z,29.80
2023-03-15T15:19:30.418Z,31.10
2023-03-15T15:22:04.409Z,22.60
2023-03-15T15:24:37.407Z,34.67
2023-03-15T15:27:04.174Z,32.90
2023-03-15T15:29:51.438Z,30.75
2023-03-15T15:32:18.066Z,30.65
2023-03-15T15:34:44.727Z,30.33
2023-03-15T15:37:18.423Z,28.50
2023-03-15T15:39:45.109Z,35.60
2023-03-15T15:42:18.429Z,25.48
2023-03-15T15:44:46.017Z,28.98
2023-03-15T15:47:19.435Z,28.60
2023-03-15T15:49:46.109Z,44.05
2023-03-15T15:52:20.434Z,26.60
2023-03-15T15:54:47.125Z,27.05
2023-03-15T15:57:20.443Z,27.75
2023-03-15T15:59:53.476Z,38.65
2023-03-15T16:02:23.029Z,33.90
2023-03-15T16:04:57.423Z,25.67
2023-03-15T16:07:24.851Z,27.48
2023-03-15T16:10:02.492Z,30.60
2023-03-15T16:12:29.459Z,37.20
2023-03-15T16:15:02.466Z,32.75
2023-03-15T16:17:29.692Z,36.90
2023-03-15T16:19:56.833Z,31.73
2023-03-15T16:22:30.461Z,39.50
2023-03-15T16:24:58.214Z,36.55
2023-03-15T16:27:33.448Z,35.10
2023-03-15T16:30:07.493Z,35.53
2023-03-15T16:32:44.468Z,25.55
2023-03-15T16:35:15.627Z,41.45
2023-03-15T16:37:49.434Z,27.30
2023-03-15T16:40:25.740Z,31.92
2023-03-15T16:42:59.464Z,43.17
2023-03-15T16:45:27.081Z,28.50
2023-03-15T16:48:02.482Z,33.72
2023-03-15T16:53:03.468Z,23.85
2023-03-15T16:55:39.487Z,36.80
2023-03-15T16:58:16.881Z,35.80
2023-03-15T17:00:54.465Z,41.50
2023-03-15T17:03:21.689Z,30.80
2023-03-15T17:05:55.469Z,74.13
2023-03-15T17:08:22.314Z,27.90
2023-03-15T17:10:55.624Z,47.38
2023-03-15T17:13:33.495Z,51.42
2023-03-15T17:16:00.226Z,51.50
2023-03-15T17:18:28.561Z,43.47
2023-03-15T17:21:01.480Z,73.90
2023-03-15T17:23:34.538Z,57.83
2023-03-15T17:26:02.569Z,38.83
2023-03-15T17:28:29.526Z,41.20
2023-03-15T17:31:20.219Z,36.67
2023-03-15T17:33:50.025Z,45.75
2023-03-15T17:36:28.521Z,30.45
2023-03-15T17:38:55.669Z,30.80
2023-03-15T17:41:31.528Z,41.58
2023-03-15T17:44:05.591Z,52.50
2023-03-15T17:46:33.279Z,48.53
2023-03-15T17:49:15.519Z,36.97
2023-03-15T17:51:42.338Z,35.50
2023-03-15T17:54:24.545Z,41.55
2023-03-15T17:56:51.618Z,34.92
2023-03-15T17:59:18.312Z,53.17
2023-03-15T18:01:52.575Z,40.78
2023-03-15T18:04:20.468Z,40.15
2023-03-15T18:06:53.554Z,50.30
2023-03-15T18:09:22.196Z,42.67
2023-03-15T18:11:48.876Z,33.63
2023-03-15T18:14:22.555Z,43.47
2023-03-15T18:16:55.593Z,40.85
2023-03-15T18:19:23.627Z,39.25
2023-03-15T18:21:50.269Z,49.88
2023-03-15T18:24:23.564Z,45.22
2023-03-15T18:26:50.221Z,44.15
2023-03-15T18:29:23.587Z,35.90
2023-03-15T18:32:10.553Z,41.55
2023-03-15T18:34:44.625Z,31.65
2023-03-15T18:37:11.758Z,39.92
2023-03-15T18:39:38.723Z,42.58
2023-03-15T18:42:11.554Z,42.72
2023-03-15T18:44:38.214Z,34.45
2023-03-15T18:47:11.538Z,37.97
2023-03-15T18:49:38.260Z,37.38
2023-03-15T18:52:11.564Z,32.28
2023-03-15T18:54:38.220Z,43.60
2023-03-15T18:57:04.901Z,37.70
2023-03-15T18:59:38.544Z,38.88
2023-03-15T19:02:05.235Z,39.78
2023-03-15T19:04:38.553Z,45.60
2023-03-15T19:07:05.364Z,39.63
2023-03-15T19:09:38.560Z,33.10
2023-03-15T19:12:05.275Z,41.55
2023-03-15T19:14:31.906Z,34.50
2023-03-15T19:17:06.656Z,32.53
2023-03-15T19:19:33.445Z,34.83
2023-03-15T19:22:00.103Z,33.58
2023-03-15T19:24:33.574Z,37.60
2023-03-15T19:27:00.274Z,33.85
2023-03-15T19:29:33.602Z,35.05
2023-03-15T19:32:20.636Z,37.75
2023-03-15T19:34:54.606Z,34.17
2023-03-15T19:37:28.359Z,29.90
2023-03-15T19:40:01.571Z,33.58
2023-03-15T19:42:28.216Z,39.47
2023-03-15T19:45:01.612Z,33.58
2023-03-15T19:47:28.268Z,36.50
2023-03-15T19:49:55.213Z,36.38
2023-03-15T19:52:28.573Z,33.28
2023-03-15T19:54:56.128Z,36.50
2023-03-15T19:57:29.631Z,31.13
2023-03-15T19:59:56.253Z,33.20
2023-03-15T20:02:24.692Z,35.75
2023-03-15T20:04:57.604Z,29.08
2023-03-15T20:07:24.268Z,26.45
2023-03-15T20:09:57.648Z,26.58
2023-03-15T20:12:24.338Z,26.88
2023-03-15T20:14:50.986Z,25.92
2023-03-15T20:17:26.607Z,33.75
2023-03-15T20:19:59.606Z,30.95
2023-03-15T20:22:26.260Z,26.13
2023-03-15T20:24:59.598Z,21.05
2023-03-15T20:27:26.235Z,26.48
2023-03-15T20:30:00.697Z,22.80
2023-03-15T20:32:34.773Z,29.65
2023-03-15T20:35:08.601Z,31.30
2023-03-15T20:37:37.660Z,34.85
2023-03-15T20:40:15.655Z,24.23
2023-03-15T20:42:42.737Z,21.77
2023-03-15T20:45:10.753Z,21.83
2023-03-15T20:47:44.658Z,26.90
2023-03-15T20:50:12.570Z,23.80
2023-03-15T20:52:47.654Z,21.77
2023-03-15T20:55:15.247Z,19.48
2023-03-15T20:57:49.614Z,21.17
2023-03-15T21:00:19.645Z,23.17
2023-03-15T21:02:54.646Z,26.05
2023-03-15T21:05:22.691Z,28.65
2023-03-15T21:07:56.132Z,28.23
2023-03-15T21:10:29.643Z,25.90
2023-03-15T21:13:02.636Z,22.98
2023-03-15T21:15:35.643Z,23.10
2023-03-15T21:18:03.595Z,25.98
2023-03-15T21:20:36.647Z,26.08
2023-03-15T21:23:03.290Z,25.48
2023-03-15T21:25:36.680Z,26.15
2023-03-15T21:28:04.401Z,26.83
2023-03-15T21:30:39.600Z,29.85
2023-03-15T21:33:19.649Z,25.83
2023-03-15T21:35:46.393Z,25.42
2023-03-15T21:38:14.391Z,24.60
2023-03-15T21:40:54.622Z,21.88
2023-03-15T21:43:27.633Z,27.88
2023-03-15T21:45:54.511Z,26.33
2023-03-15T21:48:27.627Z,29.30
2023-03-15T21:51:00.664Z,23.70
2023-03-15T21:53:34.691Z,26.13
2023-03-15T21:56:08.641Z,21.75
2023-03-15T21:58:35.407Z,22.50
2023-03-15T22:01:14.708Z,29.65
2023-03-15T22:03:42.579Z,25.20
2023-03-15T22:06:15.679Z,25.33
2023-03-15T22:08:42.707Z,25.48
2023-03-15T22:11:15.693Z,23.23
2023-03-15T22:13:42.453Z,26.85
2023-03-15T22:16:16.730Z,20.92
2023-03-15T22:18:43.437Z,29.45
2023-03-15T22:21:16.655Z,22.73
2023-03-15T22:23:49.671Z,25.15
2023-03-15T22:26:22.662Z,24.08
2023-03-15T22:28:49.752Z,21.35
2023-03-15T22:31:29.679Z,22.83
2023-03-15T22:33:56.340Z,23.70
2023-03-15T22:36:23.053Z,25.00
2023-03-15T22:38:56.670Z,22.83
2023-03-15T22:41:24.147Z,21.40
2023-03-15T22:43:58.682Z,24.15
2023-03-15T22:46:25.573Z,25.38
2023-03-15T22:48:58.686Z,21.27
2023-03-15T22:51:25.477Z,25.55
2023-03-15T22:53:58.675Z,19.58
2023-03-15T22:56:32.702Z,22.27
2023-03-15T22:58:59.348Z,25.15
2023-03-15T23:01:32.726Z,25.13
2023-03-15T23:03:59.420Z,21.77
2023-03-15T23:06:32.703Z,19.55
2023-03-15T23:09:06.750Z,23.63
2023-03-15T23:11:33.571Z,26.48
2023-03-15T23:14:06.691Z,24.33
2023-03-15T23:16:33.338Z,27.48
2023-03-15T23:19:06.698Z,25.17
2023-03-15T23:21:33.322Z,25.15
2023-03-15T23:24:06.711Z,21.77
2023-03-15T23:26:37.378Z,26.00
2023-03-15T23:29:16.739Z,24.85
2023-03-15T23:31:50.183Z,25.27
2023-03-15T23:34:23.699Z,19.58
2023-03-15T23:36:57.721Z,28.25
2023-03-15T23:39:24.455Z,26.23
2023-03-15T23:41:57.750Z,21.67
2023-03-15T23:44:30.726Z,29.08
2023-03-15T23:47:03.743Z,23.33
2023-03-15T23:49:31.041Z,22.92
2023-03-15T23:52:04.727Z,26.00
2023-03-15T23:54:39.278Z,22.83
2023-03-15T23:57:13.750Z,22.13
2023-03-15T23:59:41.672Z,25.75
